createdAt,value
2023-01-08T00:03:41.753Z,65.20
2023-01-08T00:08:45.168Z,65.10
2023-01-08T00:13:47.365Z,65.20
2023-01-08T00:18:49.586Z,65.40
2023-01-08T00:23:51.821Z,65.20
2023-01-08T00:28:54.187Z,65.30
2023-01-08T00:33:56.365Z,65.30
2023-01-08T00:39:00.885Z,65.10
2023-01-08T00:44:03.133Z,65.50
2023-01-08T00:49:05.466Z,65.40
2023-01-08T00:54:07.777Z,65.30
2023-01-08T00:59:10.071Z,65.30
2023-01-08T01:04:12.460Z,65.30
2023-01-08T01:09:14.807Z,65.30
2023-01-08T01:14:17.096Z,65.20
2023-01-08T01:19:19.362Z,65.20
2023-01-08T01:24:25.038Z,65.40
2023-01-08T01:29:27.498Z,65.60
2023-01-08T01:34:33.245Z,65.80
2023-01-08T01:39:35.500Z,65.90
2023-01-08T01:44:46.073Z,65.50
2023-01-08T01:50:10.516Z,66.00
2023-01-08T01:55:13.962Z,65.30
2023-01-08T02:00:16.570Z,66.10
2023-01-08T02:05:19.535Z,66.60
2023-01-08T02:31:13.228Z,67.30
2023-01-08T02:41:58.489Z,67.00
2023-01-08T02:47:02.596Z,66.80
2023-01-08T02:52:07.039Z,66.80
2023-01-08T02:57:13.651Z,66.80
2023-01-08T03:02:17.020Z,66.90
2023-01-08T03:07:19.765Z,66.80
2023-01-08T03:12:30.310Z,66.50
2023-01-08T03:17:38.256Z,66.80
2023-01-08T03:22:44.222Z,66.70
2023-01-08T03:27:50.625Z,66.70
2023-01-08T03:32:55.907Z,66.80
2023-01-08T03:38:07.098Z,66.90
2023-01-08T03:43:09.585Z,66.60
2023-01-08T03:48:12.283Z,66.80
2023-01-08T03:53:14.525Z,66.90
2023-01-08T03:58:17.028Z,66.70
2023-01-08T04:03:19.842Z,66.70
2023-01-08T04:08:22.101Z,66.60
2023-01-08T04:13:24.347Z,66.50
2023-01-08T04:18:26.625Z,66.50
2023-01-08T04:23:28.917Z,66.40
2023-01-08T04:28:31.184Z,66.30
2023-01-08T04:33:34.148Z,66.20
2023-01-08T04:38:36.400Z,66.10
2023-01-08T04:43:38.670Z,66.10
2023-01-08T04:48:40.935Z,66.20
2023-01-08T04:53:43.254Z,66.20
2023-01-08T04:58:45.487Z,66.30
2023-01-08T05:03:48.316Z,66.30
2023-01-08T05:08:50.795Z,66.50
2023-01-08T05:13:53.589Z,66.50
2023-01-08T05:18:55.816Z,66.70
2023-01-08T05:23:58.085Z,66.80
2023-01-08T05:29:00.303Z,67.00
2023-01-08T05:34:02.555Z,67.00
2023-01-08T05:39:05.062Z,67.10
2023-01-08T05:44:07.266Z,66.90
2023-01-08T05:49:09.790Z,66.40
2023-01-08T05:54:12.037Z,67.00
2023-01-08T05:59:14.672Z,67.20
2023-01-08T06:04:17.006Z,67.60
2023-01-08T06:09:20.016Z,67.40
2023-01-08T06:14:22.243Z,67.40
2023-01-08T06:19:24.476Z,67.70
2023-01-08T06:24:26.724Z,68.50
2023-01-08T06:29:28.947Z,68.80
2023-01-08T06:34:31.245Z,68.60
2023-01-08T06:39:33.670Z,69.20
2023-01-08T06:44:35.938Z,68.40
2023-01-08T06:49:38.195Z,68.80
2023-01-08T06:54:40.748Z,68.50
2023-01-08T06:59:43.971Z,67.90
2023-01-08T07:04:46.238Z,67.70
2023-01-08T07:09:48.460Z,68.60
2023-01-08T07:14:50.720Z,68.60
2023-01-08T07:19:52.995Z,68.80
2023-01-08T07:24:55.329Z,68.90
2023-01-08T07:29:57.666Z,69.90
2023-01-08T07:34:59.929Z,69.90
2023-01-08T07:40:02.149Z,70.30
2023-01-08T07:45:05.100Z,71.60
2023-01-08T07:50:07.706Z,70.80
2023-01-08T07:55:10.099Z,72.00
2023-01-08T08:00:12.641Z,71.80
2023-01-08T08:05:14.989Z,70.70
2023-01-08T08:10:17.349Z,71.00
2023-01-08T08:15:19.558Z,68.90
2023-01-08T08:20:21.797Z,69.30
2023-01-08T08:25:23.975Z,70.90
2023-01-08T08:30:27.417Z,68.80
2023-01-08T08:35:30.920Z,68.80
2023-01-08T08:40:33.212Z,68.50
2023-01-08T08:45:35.963Z,68.40
2023-01-08T08:50:39.275Z,65.70
2023-01-08T08:55:41.497Z,67.00
2023-01-08T09:00:44.905Z,65.40
2023-01-08T09:05:47.148Z,65.80
2023-01-08T09:10:49.371Z,63.70
2023-01-08T09:15:51.676Z,62.80
2023-01-08T09:20:53.956Z,62.10
2023-01-08T09:26:05.546Z,63.80
2023-01-08T09:31:07.881Z,62.20
2023-01-08T09:36:12.233Z,63.20
2023-01-08T09:41:26.606Z,63.30
2023-01-08T09:46:29.937Z,63.50
2023-01-08T09:51:36.099Z,62.10
2023-01-08T09:56:38.448Z,62.70
2023-01-08T10:01:41.670Z,62.50
2023-01-08T10:06:52.995Z,63.70
2023-01-08T10:11:58.656Z,64.10
2023-01-08T10:17:23.129Z,64.90
2023-01-08T10:22:31.917Z,65.30
2023-01-08T10:27:45.627Z,64.60
2023-01-08T10:32:54.352Z,65.30
2023-01-08T10:37:57.118Z,65.50
2023-01-08T10:43:07.902Z,65.60
2023-01-08T10:48:18.517Z,65.90
2023-01-08T10:53:25.694Z,65.90
2023-01-08T10:58:29.584Z,66.00
2023-01-08T11:03:33.163Z,66.40
2023-01-08T11:08:36.460Z,68.30
2023-01-08T11:13:38.968Z,68.70
2023-01-08T11:18:48.944Z,68.20
2023-01-08T11:24:21.343Z,69.30
2023-01-08T11:29:41.415Z,68.50
2023-01-08T11:39:57.143Z,68.10
2023-01-08T11:50:20.836Z,68.40
2023-01-08T12:37:56.010Z,69.30
2023-01-08T12:43:02.177Z,70.00
2023-01-08T12:48:08.457Z,70.30
2023-01-08T12:53:50.574Z,70.20
2023-01-08T13:04:18.909Z,70.00
2023-01-08T13:09:25.994Z,70.20
2023-01-08T13:14:28.638Z,69.60
2023-01-08T13:19:41.725Z,69.60
2023-01-08T13:24:44.356Z,69.90
2023-01-08T13:29:49.222Z,70.10
2023-01-08T13:56:37.768Z,70.40
2023-01-08T14:01:40.196Z,70.90
2023-01-08T14:06:42.588Z,71.10
2023-01-08T14:11:48.357Z,72.10
2023-01-08T14:16:53.101Z,71.40
2023-01-08T14:21:58.392Z,71.10
2023-01-08T14:27:00.968Z,71.00
2023-01-08T14:32:03.320Z,70.10
2023-01-08T14:37:05.778Z,70.10
2023-01-08T14:42:35.558Z,70.10
2023-01-08T14:47:40.426Z,71.10
2023-01-08T14:52:42.762Z,71.90
2023-01-08T14:57:48.166Z,71.30
2023-01-08T15:02:50.533Z,72.20
2023-01-08T15:13:24.593Z,71.70
2023-01-08T15:18:27.328Z,70.70
2023-01-08T15:23:46.529Z,70.70
2023-01-08T15:34:00.524Z,71.20
2023-01-08T15:39:02.954Z,71.60
2023-01-08T15:44:05.561Z,72.10
2023-01-08T15:49:07.775Z,72.70
2023-01-08T15:54:13.132Z,73.00
2023-01-08T15:59:15.397Z,73.40
2023-01-08T16:04:17.661Z,73.70
2023-01-08T16:09:19.916Z,73.60
2023-01-08T16:14:22.153Z,73.40
2023-01-08T16:19:25.103Z,73.90
2023-01-08T16:24:27.455Z,74.00
2023-01-08T16:29:29.879Z,74.70
2023-01-08T16:34:32.737Z,75.60
2023-01-08T16:39:35.234Z,74.80
2023-01-08T16:44:37.612Z,74.30
2023-01-08T16:49:41.707Z,75.00
2023-01-08T16:54:45.571Z,74.50
2023-01-08T16:59:48.244Z,74.40
2023-01-08T17:04:50.429Z,74.10
2023-01-08T17:09:52.644Z,74.30
2023-01-08T17:14:54.993Z,74.90
2023-01-08T17:19:57.219Z,74.90
2023-01-08T17:24:59.770Z,74.50
2023-01-08T17:30:02.225Z,74.60
2023-01-08T17:35:05.975Z,74.50
2023-01-08T17:40:09.028Z,74.20
2023-01-08T17:45:11.551Z,74.60
2023-01-08T17:50:13.783Z,74.20
2023-01-08T17:55:16.027Z,75.10
2023-01-08T18:00:19.808Z,75.90
2023-01-08T18:05:22.059Z,75.00
2023-01-08T18:10:24.360Z,75.00
2023-01-08T18:15:26.604Z,75.20
2023-01-08T18:20:29.371Z,74.60
2023-01-08T18:25:31.626Z,74.60
2023-01-08T18:30:33.905Z,74.30
2023-01-08T18:35:36.133Z,74.20
2023-01-08T18:40:38.358Z,74.70
2023-01-08T18:45:41.358Z,74.60
2023-01-08T18:50:43.696Z,74.30
2023-01-08T18:55:46.400Z,74.30
2023-01-08T19:00:48.691Z,74.60
2023-01-08T19:05:51.017Z,74.40
2023-01-08T19:10:53.312Z,74.80
2023-01-08T19:15:55.556Z,74.80
2023-01-08T19:21:00.008Z,75.00
2023-01-08T19:26:07.201Z,75.40
2023-01-08T19:31:12.925Z,75.40
2023-01-08T19:36:16.669Z,75.40
2023-01-08T19:41:39.223Z,75.30
2023-01-08T19:46:41.515Z,75.20
2023-01-08T19:51:43.884Z,75.10
2023-01-08T19:56:46.136Z,75.00
2023-01-08T20:01:48.726Z,75.00
2023-01-08T20:06:52.516Z,75.20
2023-01-08T20:11:54.831Z,75.40
2023-01-08T20:16:57.392Z,75.50
2023-01-08T20:21:59.641Z,75.60
2023-01-08T20:27:01.896Z,76.50
2023-01-08T20:32:06.049Z,75.70
2023-01-08T20:37:08.435Z,75.70
2023-01-08T20:42:12.391Z,75.70
2023-01-08T20:47:19.490Z,75.30
2023-01-08T20:52:21.701Z,75.90
2023-01-08T20:57:23.941Z,76.30
2023-01-08T21:02:26.191Z,76.30
2023-01-08T21:07:29.949Z,75.90
2023-01-08T21:12:32.516Z,75.70
2023-01-08T21:17:35.408Z,75.80
2023-01-08T21:22:37.673Z,75.80
2023-01-08T21:27:39.944Z,76.20
2023-01-08T21:32:42.243Z,76.10
2023-01-08T21:37:44.737Z,76.10
2023-01-08T21:43:06.896Z,76.00
2023-01-08T21:48:09.253Z,76.00
2023-01-08T21:53:31.351Z,76.20
2023-01-08T21:58:33.727Z,76.60
2023-01-08T22:03:35.990Z,76.50
2023-01-08T22:08:38.339Z,76.60
2023-01-08T22:13:40.679Z,76.20
2023-01-08T22:18:43.010Z,76.30
2023-01-08T22:23:45.269Z,76.40
2023-01-08T22:28:47.522Z,76.10
2023-01-08T22:33:54.406Z,75.90
2023-01-08T22:38:57.013Z,75.40
2023-01-08T22:43:59.271Z,75.40
2023-01-08T22:49:01.618Z,75.50
2023-01-08T22:54:04.019Z,75.90
2023-01-08T22:59:06.258Z,76.00
2023-01-08T23:04:08.601Z,76.20
2023-01-08T23:09:11.023Z,75.60
2023-01-08T23:14:15.503Z,75.20
2023-01-08T23:19:17.820Z,75.40
2023-01-08T23:24:20.032Z,75.40
2023-01-08T23:29:22.762Z,75.50
2023-01-08T23:34:25.848Z,75.50
2023-01-08T23:39:28.365Z,75.10
2023-01-08T23:44:30.602Z,75.40
2023-01-08T23:49:34.686Z,75.10
2023-01-08T23:54:37.090Z,74.90
2023-01-08T23:59:39.315Z,74.60
